createdAt,value
2018-12-19T00:00:57.053Z,48.84
2018-12-19T00:03:26.693Z,49.13
2018-12-19T00:05:56.300Z,48.63
2018-12-19T00:08:25.883Z,48.54
2018-12-19T00:10:55.532Z,48.99
2018-12-19T00:13:25.152Z,49.19
2018-12-19T00:15:54.711Z,49.15
2018-12-19T00:18:24.329Z,49.03
2018-12-19T00:20:53.902Z,50.44
2018-12-19T00:23:23.546Z,50.56
2018-12-19T00:25:53.151Z,49.35
2018-12-19T00:28:22.929Z,50.61
2018-12-19T00:30:52.626Z,51.07
2018-12-19T00:33:22.192Z,50.10
2018-12-19T00:35:51.837Z,50.68
2018-12-19T00:38:21.414Z,49.85
2018-12-19T00:40:51.003Z,50.61
2018-12-19T00:43:20.561Z,49.74
2018-12-19T00:45:50.131Z,49.73
2018-12-19T00:48:19.980Z,49.57
2018-12-19T00:50:49.573Z,48.58
2018-12-19T00:53:19.281Z,50.26
2018-12-19T00:55:48.892Z,50.74
2018-12-19T00:58:18.501Z,50.21
2018-12-19T01:00:48.402Z,50.64
2018-12-19T01:03:24.663Z,50.10
2018-12-19T01:05:54.311Z,50.36
2018-12-19T01:08:23.884Z,50.36
2018-12-19T01:10:53.531Z,49.26
2018-12-19T01:13:23.175Z,50.10
2018-12-19T01:15:52.744Z,50.37
2018-12-19T01:18:22.642Z,49.94
2018-12-19T01:20:52.242Z,49.33
2018-12-19T01:23:21.892Z,49.67
2018-12-19T01:25:51.453Z,48.99
2018-12-19T01:28:20.995Z,49.05
2018-12-19T01:30:50.595Z,49.01
2018-12-19T01:33:20.153Z,49.57
2018-12-19T01:35:49.761Z,49.13
2018-12-19T01:38:19.461Z,48.71
2018-12-19T01:40:49.059Z,49.83
2018-12-19T01:43:18.635Z,50.18
2018-12-19T01:45:48.231Z,50.17
2018-12-19T01:48:17.863Z,49.62
2018-12-19T01:50:47.538Z,51.00
2018-12-19T01:53:17.198Z,51.22
2018-12-19T01:55:47.142Z,50.23
2018-12-19T01:58:16.819Z,50.37
2018-12-19T02:00:46.518Z,49.55
2018-12-19T02:03:16.102Z,50.27
2018-12-19T02:05:45.782Z,50.37
2018-12-19T02:08:15.395Z,49.67
2018-12-19T02:10:44.998Z,50.19
2018-12-19T02:13:14.595Z,50.33
2018-12-19T02:15:44.169Z,49.78
2018-12-19T02:18:13.733Z,50.19
2018-12-19T02:20:43.285Z,50.41
2018-12-19T02:23:12.959Z,50.09
2018-12-19T02:25:42.498Z,49.71
2018-12-19T02:28:12.079Z,50.22
2018-12-19T02:30:41.645Z,50.25
2018-12-19T02:33:11.299Z,50.77
2018-12-19T02:35:40.965Z,50.01
2018-12-19T02:38:10.551Z,50.64
2018-12-19T02:40:40.218Z,51.24
2018-12-19T02:43:09.810Z,51.16
2018-12-19T02:45:39.388Z,51.08
2018-12-19T02:48:09.131Z,50.33
2018-12-19T02:50:38.842Z,50.70
2018-12-19T02:53:08.480Z,50.61
2018-12-19T02:55:38.034Z,50.47
2018-12-19T02:58:07.643Z,50.48
2018-12-19T03:00:37.258Z,50.58
2018-12-19T03:03:06.970Z,50.60
2018-12-19T03:05:36.527Z,49.83
2018-12-19T03:08:06.114Z,51.06
2018-12-19T03:10:35.688Z,50.83
2018-12-19T03:13:05.331Z,50.55
2018-12-19T03:15:35.000Z,50.02
2018-12-19T03:18:04.712Z,50.60
2018-12-19T03:20:34.319Z,50.51
2018-12-19T03:23:03.925Z,50.58
2018-12-19T03:25:36.502Z,50.13
2018-12-19T03:28:06.063Z,49.93
2018-12-19T03:30:35.656Z,49.65
2018-12-19T03:33:05.209Z,49.21
2018-12-19T03:35:34.773Z,49.16
2018-12-19T03:38:04.364Z,49.42
2018-12-19T03:40:33.928Z,48.69
2018-12-19T03:43:03.584Z,50.11
2018-12-19T03:45:33.177Z,50.24
2018-12-19T03:48:13.712Z,49.35
2018-12-19T03:50:43.293Z,48.89
2018-12-19T03:53:12.874Z,49.72
2018-12-19T03:55:42.595Z,49.27
2018-12-19T03:58:12.221Z,50.18
2018-12-19T04:00:41.812Z,49.64
2018-12-19T04:03:11.540Z,49.80
2018-12-19T04:05:41.121Z,49.68
2018-12-19T04:08:11.017Z,49.46
2018-12-19T04:10:40.600Z,49.43
2018-12-19T04:13:10.203Z,49.01
2018-12-19T04:15:39.795Z,49.08
2018-12-19T04:18:09.377Z,49.83
2018-12-19T04:20:38.988Z,49.14
2018-12-19T04:23:08.598Z,48.75
2018-12-19T04:25:38.272Z,49.49
2018-12-19T04:28:07.943Z,48.70
2018-12-19T04:30:40.057Z,48.38
2018-12-19T04:33:09.658Z,48.64
2018-12-19T04:35:39.740Z,48.84
2018-12-19T04:38:09.257Z,49.09
2018-12-19T04:40:38.825Z,48.51
2018-12-19T04:43:08.509Z,47.66
2018-12-19T04:45:38.112Z,48.92
2018-12-19T04:48:07.718Z,48.63
2018-12-19T04:50:37.290Z,48.26
2018-12-19T04:53:06.905Z,47.95
2018-12-19T04:55:36.488Z,47.78
2018-12-19T04:58:06.143Z,49.01
2018-12-19T05:00:35.777Z,48.83
2018-12-19T05:03:05.447Z,48.16
2018-12-19T05:05:35.105Z,48.63
2018-12-19T05:08:05.094Z,48.45
2018-12-19T05:10:34.704Z,47.40
2018-12-19T05:13:04.374Z,47.58
2018-12-19T05:15:33.979Z,48.52
2018-12-19T05:18:03.685Z,48.60
2018-12-19T05:20:33.203Z,48.70
2018-12-19T05:36:02.493Z,48.00
2018-12-19T05:38:32.070Z,48.61
2018-12-19T05:41:01.779Z,49.72
2018-12-19T05:43:31.502Z,48.13
2018-12-19T05:46:01.431Z,48.37
2018-12-19T05:48:30.909Z,48.24
2018-12-19T05:51:00.760Z,48.69
2018-12-19T05:53:30.281Z,49.63
2018-12-19T05:56:00.004Z,49.40
2018-12-19T05:58:29.730Z,49.06
2018-12-19T06:01:02.308Z,48.70
2018-12-19T06:03:31.916Z,48.39
2018-12-19T06:06:01.558Z,48.01
2018-12-19T06:08:31.095Z,48.05
2018-12-19T06:11:00.634Z,47.52
2018-12-19T06:13:30.205Z,47.47
2018-12-19T06:15:59.804Z,47.82
2018-12-19T06:18:29.814Z,47.36
2018-12-19T06:20:59.515Z,47.23
2018-12-19T06:23:29.132Z,47.21
2018-12-19T06:25:58.782Z,47.51
2018-12-19T06:28:28.444Z,46.90
2018-12-19T06:30:58.099Z,47.05
2018-12-19T06:33:27.811Z,46.87
2018-12-19T06:35:57.465Z,46.65
2018-12-19T06:38:27.220Z,46.57
2018-12-19T06:40:57.144Z,46.90
2018-12-19T06:43:27.035Z,46.56
2018-12-19T06:45:58.377Z,47.03
2018-12-19T06:48:28.201Z,46.35
2018-12-19T06:50:57.989Z,46.45
2018-12-19T06:53:27.580Z,46.69
2018-12-19T06:55:57.242Z,47.00
2018-12-19T06:58:26.890Z,48.10
2018-12-19T07:00:56.431Z,48.99
2018-12-19T07:03:26.209Z,50.35
2018-12-19T07:05:55.845Z,50.45
2018-12-19T07:08:25.604Z,50.86
2018-12-19T07:10:55.622Z,50.75
2018-12-19T07:13:25.304Z,50.75
2018-12-19T07:15:55.151Z,50.93
2018-12-19T07:18:24.919Z,51.29
2018-12-19T07:20:54.699Z,51.47
2018-12-19T07:23:24.402Z,51.63
2018-12-19T07:25:54.192Z,51.05
2018-12-19T07:28:23.837Z,51.06
2018-12-19T07:30:53.475Z,51.09
2018-12-19T07:33:23.254Z,51.09
2018-12-19T07:35:52.925Z,51.01
2018-12-19T07:38:22.546Z,50.92
2018-12-19T07:40:52.493Z,50.29
2018-12-19T07:43:22.206Z,49.92
2018-12-19T07:45:52.124Z,50.18
2018-12-19T07:48:21.919Z,50.29
2018-12-19T07:50:51.548Z,49.55
2018-12-19T07:53:21.397Z,49.85
2018-12-19T07:55:51.708Z,49.77
2018-12-19T07:58:21.432Z,49.80
2018-12-19T08:00:51.167Z,49.39
2018-12-19T08:03:20.824Z,49.55
2018-12-19T08:05:50.789Z,49.12
2018-12-19T08:08:20.583Z,49.26
2018-12-19T08:10:52.394Z,49.36
2018-12-19T08:13:22.113Z,49.19
2018-12-19T08:15:51.732Z,48.77
2018-12-19T08:18:21.685Z,49.15
2018-12-19T08:20:51.533Z,49.01
2018-12-19T08:23:21.313Z,48.82
2018-12-19T08:25:50.852Z,48.55
2018-12-19T08:28:20.514Z,49.18
2018-12-19T08:30:50.124Z,48.83
2018-12-19T08:33:19.714Z,48.79
2018-12-19T08:35:49.302Z,48.28
2018-12-19T08:38:18.882Z,48.04
2018-12-19T08:40:48.764Z,48.43
2018-12-19T08:43:18.356Z,48.27
2018-12-19T08:45:48.539Z,48.35
2018-12-19T08:48:18.245Z,47.95
2018-12-19T08:50:47.843Z,48.22
2018-12-19T08:53:17.454Z,48.18
2018-12-19T08:55:47.144Z,47.73
2018-12-19T08:58:16.743Z,48.18
2018-12-19T09:00:46.354Z,47.73
2018-12-19T09:03:15.953Z,47.89
2018-12-19T09:05:45.513Z,48.23
2018-12-19T09:08:15.131Z,47.83
2018-12-19T09:10:44.885Z,47.37
2018-12-19T09:13:14.489Z,47.69
2018-12-19T09:15:48.182Z,47.51
2018-12-19T09:18:17.893Z,47.53
2018-12-19T09:20:47.683Z,47.40
2018-12-19T09:23:17.370Z,47.07
2018-12-19T09:25:46.934Z,47.54
2018-12-19T09:28:16.450Z,47.52
2018-12-19T09:30:46.053Z,47.60
2018-12-19T09:33:15.691Z,47.03
2018-12-19T09:35:45.372Z,47.65
2018-12-19T09:38:14.868Z,47.36
2018-12-19T09:40:44.456Z,47.54
2018-12-19T09:43:13.995Z,47.07
2018-12-19T09:45:43.579Z,46.86
2018-12-19T09:48:13.206Z,47.26
2018-12-19T09:50:42.858Z,46.99
2018-12-19T09:53:12.532Z,46.66
2018-12-19T09:55:42.194Z,46.51
2018-12-19T09:58:11.807Z,46.95
2018-12-19T10:00:41.412Z,46.34
2018-12-19T10:03:11.005Z,46.71
2018-12-19T10:05:40.671Z,46.24
2018-12-19T10:08:10.237Z,46.60
2018-12-19T10:10:39.969Z,46.66
2018-12-19T10:13:09.501Z,46.21
2018-12-19T10:15:39.023Z,46.46
2018-12-19T10:18:08.618Z,46.59
2018-12-19T10:20:38.297Z,46.06
2018-12-19T10:23:07.805Z,46.58
2018-12-19T10:25:37.384Z,45.80
2018-12-19T10:28:07.073Z,46.22
2018-12-19T10:30:40.702Z,45.95
2018-12-19T10:33:10.359Z,45.75
2018-12-19T10:35:39.943Z,45.69
2018-12-19T10:38:09.642Z,46.07
2018-12-19T10:40:39.234Z,45.72
2018-12-19T10:43:08.841Z,45.65
2018-12-19T10:45:38.555Z,45.59
2018-12-19T10:48:08.121Z,45.98
2018-12-19T10:50:37.968Z,45.48
2018-12-19T10:53:07.835Z,45.55
2018-12-19T10:55:37.416Z,45.80
2018-12-19T10:58:06.968Z,45.88
2018-12-19T11:00:40.694Z,45.77
2018-12-19T11:03:10.208Z,45.65
2018-12-19T11:05:39.838Z,45.27
2018-12-19T11:08:09.504Z,45.42
2018-12-19T11:10:39.108Z,45.41
2018-12-19T11:13:08.822Z,45.55
2018-12-19T11:15:38.394Z,45.11
2018-12-19T11:18:08.041Z,44.96
2018-12-19T11:20:37.674Z,45.24
2018-12-19T11:23:07.460Z,44.81
2018-12-19T11:25:37.012Z,45.29
2018-12-19T11:28:06.672Z,45.24
2018-12-19T11:30:36.207Z,45.09
2018-12-19T11:33:05.792Z,45.06
2018-12-19T11:35:35.684Z,44.98
2018-12-19T11:38:05.283Z,44.91
2018-12-19T11:40:35.000Z,44.48
2018-12-19T11:43:04.669Z,44.83
2018-12-19T11:45:34.254Z,44.54
2018-12-19T11:48:03.931Z,44.61
2018-12-19T11:50:33.731Z,45.08
2018-12-19T11:53:03.344Z,44.79
2018-12-19T11:55:32.944Z,44.84
2018-12-19T11:58:02.632Z,44.65
2018-12-19T12:00:32.205Z,44.61
2018-12-19T12:03:01.852Z,44.53
2018-12-19T12:05:31.469Z,44.05
2018-12-19T12:08:01.108Z,43.90
2018-12-19T12:10:31.000Z,44.19
2018-12-19T12:13:00.691Z,44.52
2018-12-19T12:15:30.182Z,44.47
2018-12-19T12:17:59.768Z,44.13
2018-12-19T12:20:29.472Z,43.91
2018-12-19T12:22:59.110Z,43.87
2018-12-19T12:25:28.748Z,44.41
2018-12-19T12:27:58.424Z,43.62
2018-12-19T12:30:28.029Z,43.87
2018-12-19T12:32:57.750Z,44.04
2018-12-19T12:35:27.361Z,43.52
2018-12-19T12:37:57.464Z,44.20
2018-12-19T12:40:27.198Z,44.20
2018-12-19T12:42:56.770Z,43.58
2018-12-19T12:45:26.534Z,43.89
2018-12-19T12:47:56.083Z,44.10
2018-12-19T12:50:25.739Z,43.62
2018-12-19T12:52:55.348Z,43.74
2018-12-19T12:55:25.214Z,44.00
2018-12-19T12:57:54.822Z,43.76
2018-12-19T13:00:24.552Z,43.84
2018-12-19T13:02:54.131Z,43.46
2018-12-19T13:05:24.733Z,43.60
2018-12-19T13:07:54.395Z,43.74
2018-12-19T13:10:24.045Z,43.34
2018-12-19T13:12:53.635Z,43.26
2018-12-19T13:15:27.282Z,43.30
2018-12-19T13:17:57.379Z,43.50
2018-12-19T13:20:27.088Z,43.33
2018-12-19T13:22:56.710Z,43.70
2018-12-19T13:25:26.430Z,43.66
2018-12-19T13:27:56.193Z,43.60
2018-12-19T13:30:25.946Z,43.67
2018-12-19T13:32:55.642Z,43.60
2018-12-19T13:35:31.602Z,43.66
2018-12-19T13:38:01.207Z,43.29
2018-12-19T13:40:30.790Z,43.49
2018-12-19T13:43:00.524Z,43.46
2018-12-19T13:45:30.122Z,43.66
2018-12-19T13:47:59.892Z,43.54
2018-12-19T13:50:29.538Z,42.99
2018-12-19T13:52:59.184Z,43.49
2018-12-19T13:55:30.812Z,42.85
2018-12-19T13:58:06.897Z,42.91
2018-12-19T14:00:32.103Z,42.92
2018-12-19T14:03:01.875Z,43.29
2018-12-19T14:05:31.589Z,43.24
2018-12-19T14:08:01.300Z,42.71
2018-12-19T14:10:30.996Z,43.33
2018-12-19T14:13:00.574Z,43.83
2018-12-19T14:15:30.420Z,43.32
2018-12-19T14:18:00.793Z,43.08
2018-12-19T14:20:30.653Z,43.75
2018-12-19T14:23:00.355Z,43.16
2018-12-19T14:25:30.145Z,43.57
2018-12-19T14:27:59.973Z,43.29
2018-12-19T14:30:29.746Z,43.09
2018-12-19T14:32:59.324Z,43.19
2018-12-19T14:35:29.053Z,43.43
2018-12-19T14:37:58.685Z,43.38
2018-12-19T14:40:28.592Z,43.08
2018-12-19T14:42:58.289Z,42.93
2018-12-19T14:45:28.192Z,42.80
2018-12-19T14:47:58.075Z,42.83
2018-12-19T14:50:28.180Z,40.89
2018-12-19T14:52:57.740Z,39.71
2018-12-19T14:55:27.357Z,38.02
2018-12-19T14:57:56.983Z,37.67
2018-12-19T15:00:26.739Z,37.70
2018-12-19T15:02:56.468Z,37.49
2018-12-19T15:05:26.058Z,36.89
2018-12-19T15:07:55.680Z,37.23
2018-12-19T15:10:28.326Z,37.19
2018-12-19T15:12:58.212Z,36.85
2018-12-19T15:15:27.919Z,36.50
2018-12-19T15:17:57.495Z,36.62
2018-12-19T15:20:27.131Z,36.66
2018-12-19T15:22:56.758Z,36.36
2018-12-19T15:25:26.404Z,36.23
2018-12-19T15:27:56.102Z,37.37
2018-12-19T15:30:25.684Z,37.84
2018-12-19T15:32:55.335Z,38.43
2018-12-19T15:35:24.958Z,38.24
2018-12-19T15:37:54.602Z,38.54
2018-12-19T15:40:24.247Z,37.94
2018-12-19T15:42:53.973Z,38.02
2018-12-19T15:45:23.700Z,38.13
2018-12-19T15:47:53.410Z,38.34
2018-12-19T15:50:23.075Z,37.80
2018-12-19T15:52:52.820Z,39.56
2018-12-19T15:55:22.535Z,39.69
2018-12-19T15:57:52.229Z,39.56
2018-12-19T16:00:21.942Z,39.89
2018-12-19T16:02:51.710Z,40.35
2018-12-19T16:05:21.332Z,40.06
2018-12-19T16:07:50.997Z,40.14
2018-12-19T16:10:20.584Z,40.10
2018-12-19T16:12:50.764Z,40.58
2018-12-19T16:15:20.390Z,40.58
2018-12-19T16:17:49.999Z,40.98
2018-12-19T16:20:19.614Z,40.93
2018-12-19T16:22:49.303Z,41.33
2018-12-19T16:25:19.014Z,40.63
2018-12-19T16:27:48.591Z,40.79
2018-12-19T16:30:18.341Z,41.01
2018-12-19T16:32:47.963Z,40.87
2018-12-19T16:35:17.562Z,41.29
2018-12-19T16:37:47.259Z,41.58
2018-12-19T16:40:16.962Z,41.65
2018-12-19T16:42:46.502Z,41.55
2018-12-19T16:45:16.169Z,41.80
2018-12-19T16:47:45.787Z,41.31
2018-12-19T16:50:15.484Z,41.17
2018-12-19T16:52:45.114Z,41.66
2018-12-19T16:55:14.777Z,41.22
2018-12-19T16:57:44.410Z,41.40
2018-12-19T17:00:14.090Z,41.61
2018-12-19T17:02:43.821Z,41.33
2018-12-19T17:05:13.527Z,41.72
2018-12-19T17:07:43.141Z,41.75
2018-12-19T17:10:12.732Z,41.59
2018-12-19T17:12:42.436Z,42.08
2018-12-19T17:15:12.078Z,42.14
2018-12-19T17:17:45.725Z,42.18
2018-12-19T17:20:15.542Z,41.98
2018-12-19T17:22:45.358Z,41.95
2018-12-19T17:25:15.302Z,41.50
2018-12-19T17:27:44.972Z,41.52
2018-12-19T17:30:14.624Z,41.79
2018-12-19T17:32:44.525Z,41.64
2018-12-19T17:35:14.373Z,41.93
2018-12-19T17:37:44.242Z,42.46
2018-12-19T17:40:14.058Z,41.80
2018-12-19T17:42:43.723Z,41.77
2018-12-19T17:45:13.551Z,41.88
2018-12-19T17:47:43.390Z,42.40
2018-12-19T17:50:13.130Z,42.64
2018-12-19T17:52:42.996Z,42.39
2018-12-19T17:55:12.671Z,42.39
2018-12-19T17:57:42.521Z,41.75
2018-12-19T18:00:13.041Z,41.54
2018-12-19T18:02:42.861Z,41.68
2018-12-19T18:05:12.747Z,41.64
2018-12-19T18:07:50.164Z,41.72
2018-12-19T18:10:19.935Z,41.79
2018-12-19T18:12:49.673Z,41.90
2018-12-19T18:15:26.050Z,41.67
2018-12-19T18:17:55.774Z,42.23
2018-12-19T18:22:48.443Z,100.00
2018-12-19T18:26:36.870Z,51.07
2018-12-19T18:29:06.779Z,44.89
2018-12-19T18:31:37.944Z,41.81
2018-12-19T18:34:07.855Z,41.39
2018-12-19T18:36:37.663Z,40.67
2018-12-19T18:39:12.764Z,39.96
2018-12-19T18:41:43.293Z,100.00
2018-12-19T18:44:13.463Z,100.00
2018-12-19T18:46:43.942Z,100.00
2018-12-19T18:49:17.306Z,100.00
2018-12-19T18:51:48.719Z,100.00
2018-12-19T18:54:19.009Z,100.00
2018-12-19T19:30:16.956Z,41.70
2018-12-19T19:32:47.411Z,44.54
2018-12-19T19:35:18.898Z,44.98
2018-12-19T19:37:50.185Z,45.23
2018-12-19T19:40:24.130Z,45.24
2018-12-19T19:42:58.021Z,44.47
2018-12-19T19:45:29.457Z,44.26
2018-12-19T19:48:07.637Z,43.64
2018-12-19T19:50:43.595Z,43.48
2018-12-19T19:53:19.266Z,42.47
2018-12-19T19:55:51.601Z,41.59
2018-12-19T19:58:22.754Z,45.16
2018-12-19T20:00:53.648Z,47.41
2018-12-19T20:03:27.045Z,45.21
2018-12-19T20:05:58.133Z,44.06
2018-12-19T20:08:30.322Z,44.11
2018-12-19T20:11:01.230Z,45.86
2018-12-19T20:13:33.419Z,44.03
2018-12-19T20:16:08.144Z,43.33
2018-12-19T20:18:42.768Z,42.41
2018-12-19T20:21:13.118Z,43.19
2018-12-19T20:23:49.498Z,45.21
2018-12-19T20:26:20.565Z,44.71
2018-12-19T20:28:54.083Z,43.54
2018-12-19T20:31:31.345Z,43.24
2018-12-19T20:34:02.628Z,42.05
2018-12-19T20:36:33.261Z,41.99
2018-12-19T20:39:04.216Z,41.65
2018-12-19T20:41:36.354Z,41.54
2018-12-19T20:44:10.674Z,41.62
2018-12-19T20:46:43.911Z,41.70
2018-12-19T20:49:15.315Z,41.92
2018-12-19T20:51:46.262Z,41.16
2018-12-19T20:54:16.980Z,40.95
2018-12-19T20:56:50.165Z,41.57
2018-12-19T20:59:20.459Z,41.20
2018-12-19T21:01:52.040Z,41.41
2018-12-19T21:04:22.487Z,41.62
2018-12-19T21:06:53.915Z,42.03
2018-12-19T21:09:28.222Z,42.23
2018-12-19T21:11:58.466Z,42.59
2018-12-19T21:14:28.768Z,42.30
2018-12-19T21:17:06.620Z,42.72
2018-12-19T21:19:36.875Z,42.84
2018-12-19T21:22:12.422Z,42.47
2018-12-19T21:24:42.657Z,42.63
2018-12-19T21:27:13.035Z,42.75
2018-12-19T21:29:43.290Z,42.32
2018-12-19T21:32:13.522Z,42.79
2018-12-19T21:34:53.140Z,42.48
2018-12-19T21:37:23.499Z,42.81
2018-12-19T21:39:53.942Z,42.60
2018-12-19T21:42:24.195Z,43.26
2018-12-19T21:44:54.487Z,43.13
2018-12-19T21:47:24.625Z,43.36
2018-12-19T21:49:54.698Z,45.40
2018-12-19T21:52:24.912Z,46.35
2018-12-19T21:54:57.143Z,46.78
2018-12-19T21:57:27.034Z,46.33
2018-12-19T21:59:58.170Z,45.43
2018-12-19T22:02:28.291Z,45.79
2018-12-19T22:04:58.235Z,45.83
2018-12-19T22:07:28.190Z,46.26
2018-12-19T22:09:58.207Z,46.06
2018-12-19T22:12:28.129Z,46.01
2018-12-19T22:14:58.261Z,46.19
2018-12-19T22:17:32.266Z,46.36
2018-12-19T22:20:02.308Z,45.49
2018-12-19T22:22:32.287Z,45.93
2018-12-19T22:25:02.151Z,45.89
2018-12-19T22:27:32.136Z,46.03
2018-12-19T22:30:02.138Z,45.43
2018-12-19T22:32:32.115Z,45.30
2018-12-19T22:35:02.147Z,45.72
2018-12-19T22:37:32.042Z,45.62
2018-12-19T22:40:02.142Z,44.55
2018-12-19T22:42:32.070Z,45.21
2018-12-19T22:45:02.091Z,45.92
2018-12-19T22:47:32.088Z,45.89
2018-12-19T22:50:02.108Z,45.26
2018-12-19T22:52:32.179Z,45.22
2018-12-19T22:55:02.079Z,45.54
2018-12-19T22:57:32.019Z,45.11
2018-12-19T23:00:01.904Z,45.27
2018-12-19T23:02:35.885Z,45.13
2018-12-19T23:05:06.089Z,44.74
2018-12-19T23:07:36.019Z,44.84
2018-12-19T23:10:05.950Z,44.78
2018-12-19T23:12:35.910Z,44.98
2018-12-19T23:15:06.063Z,44.57
2018-12-19T23:17:39.942Z,44.68
2018-12-19T23:20:11.538Z,44.78
2018-12-19T23:22:41.466Z,44.53
2018-12-19T23:25:11.668Z,45.02
2018-12-19T23:27:41.572Z,44.82
2018-12-19T23:30:11.535Z,45.06
2018-12-19T23:32:41.533Z,44.79
2018-12-19T23:35:11.327Z,45.53
2018-12-19T23:37:41.730Z,45.14
2018-12-19T23:40:11.810Z,45.26
2018-12-19T23:42:41.690Z,45.27
2018-12-19T23:45:11.701Z,45.45
2018-12-19T23:47:41.617Z,45.69
2018-12-19T23:50:11.513Z,45.19
2018-12-19T23:52:41.409Z,45.44
2018-12-19T23:55:11.328Z,45.63
2018-12-19T23:57:41.312Z,45.50
